createdAt,value
2022-07-29T00:00:52.159Z,23.68
2022-07-29T00:03:18.682Z,23.66
2022-07-29T00:05:45.263Z,23.67
2022-07-29T00:08:12.748Z,23.66
2022-07-29T00:10:39.620Z,23.67
2022-07-29T00:13:06.197Z,23.66
2022-07-29T00:15:32.600Z,23.66
2022-07-29T00:17:59.103Z,23.65
2022-07-29T00:20:25.525Z,23.63
2022-07-29T00:22:51.990Z,23.64
2022-07-29T00:25:18.403Z,23.64
2022-07-29T00:27:46.726Z,23.66
2022-07-29T00:30:13.263Z,23.63
2022-07-29T00:32:40.042Z,23.64
2022-07-29T00:35:25.410Z,23.67
2022-07-29T00:37:53.668Z,23.65
2022-07-29T00:40:20.073Z,23.67
2022-07-29T00:42:51.498Z,23.67
2022-07-29T00:45:18.574Z,23.65
2022-07-29T00:47:45.730Z,23.64
2022-07-29T00:50:13.208Z,23.64
2022-07-29T00:52:40.613Z,23.63
2022-07-29T00:55:08.952Z,23.61
2022-07-29T00:57:38.877Z,23.60
2022-07-29T01:00:06.090Z,23.59
2022-07-29T01:02:33.896Z,23.57
2022-07-29T01:05:00.494Z,23.55
2022-07-29T01:07:27.714Z,23.54
2022-07-29T01:09:55.475Z,23.49
2022-07-29T01:12:26.033Z,23.53
2022-07-29T01:14:53.128Z,23.50
2022-07-29T01:17:27.703Z,23.49
2022-07-29T01:19:54.581Z,23.48
2022-07-29T01:22:36.357Z,23.48
2022-07-29T01:25:21.687Z,23.49
2022-07-29T01:28:06.959Z,23.50
2022-07-29T01:30:37.838Z,23.49
2022-07-29T01:33:07.437Z,23.48
2022-07-29T01:35:39.312Z,23.48
2022-07-29T01:38:14.493Z,23.46
2022-07-29T01:40:48.933Z,23.48
2022-07-29T01:43:21.167Z,23.50
2022-07-29T01:45:57.276Z,23.51
2022-07-29T01:48:29.510Z,23.51
2022-07-29T01:51:06.825Z,23.48
2022-07-29T01:53:39.936Z,23.49
2022-07-29T01:56:07.502Z,23.48
2022-07-29T01:58:36.667Z,23.47
2022-07-29T02:01:04.586Z,23.47
2022-07-29T02:03:32.775Z,23.47
2022-07-29T02:06:00.905Z,23.48
2022-07-29T02:08:29.174Z,23.48
2022-07-29T02:10:56.346Z,23.48
2022-07-29T02:13:24.598Z,23.47
2022-07-29T02:15:52.178Z,23.45
2022-07-29T02:18:19.464Z,23.41
2022-07-29T02:20:48.152Z,23.38
2022-07-29T02:23:17.238Z,23.35
2022-07-29T02:25:43.846Z,23.32
2022-07-29T02:28:12.998Z,23.29
2022-07-29T02:30:41.542Z,23.25
2022-07-29T02:33:09.494Z,23.22
2022-07-29T02:35:36.410Z,23.19
2022-07-29T02:38:22.562Z,23.21
2022-07-29T02:40:49.559Z,23.19
2022-07-29T02:43:16.427Z,23.20
2022-07-29T02:45:43.737Z,23.22
2022-07-29T02:48:16.171Z,23.24
2022-07-29T02:50:50.370Z,23.27
2022-07-29T02:53:19.502Z,23.30
2022-07-29T02:55:59.938Z,23.29
2022-07-29T02:58:34.270Z,23.30
2022-07-29T03:01:03.622Z,23.30
2022-07-29T03:03:31.861Z,23.32
2022-07-29T03:05:58.893Z,23.29
2022-07-29T03:08:25.770Z,23.28
2022-07-29T03:10:52.251Z,23.29
2022-07-29T03:13:19.809Z,23.27
2022-07-29T03:15:46.728Z,23.25
2022-07-29T03:18:13.836Z,23.26
2022-07-29T03:20:40.610Z,23.28
2022-07-29T03:23:07.255Z,23.29
2022-07-29T03:25:33.745Z,23.27
2022-07-29T03:28:00.341Z,23.23
2022-07-29T03:30:26.884Z,23.17
2022-07-29T03:32:54.001Z,23.11
2022-07-29T03:35:20.912Z,23.03
2022-07-29T03:37:47.609Z,22.95
2022-07-29T03:40:18.252Z,22.87
2022-07-29T03:42:46.198Z,22.91
2022-07-29T03:45:14.714Z,22.95
2022-07-29T03:47:51.140Z,22.94
2022-07-29T03:50:20.387Z,22.94
2022-07-29T03:52:47.620Z,22.93
2022-07-29T03:55:14.603Z,22.92
2022-07-29T03:57:41.367Z,22.95
2022-07-29T04:00:08.327Z,22.98
2022-07-29T04:02:34.948Z,22.97
2022-07-29T04:05:01.445Z,22.99
2022-07-29T04:07:28.008Z,23.00
2022-07-29T04:09:54.451Z,22.97
2022-07-29T04:12:21.986Z,22.93
2022-07-29T04:14:48.464Z,22.88
2022-07-29T04:17:14.872Z,22.82
2022-07-29T04:19:41.419Z,22.78
2022-07-29T04:22:07.875Z,22.71
2022-07-29T04:24:34.388Z,22.68
2022-07-29T04:27:00.872Z,22.68
2022-07-29T04:29:27.271Z,22.66
2022-07-29T04:31:53.771Z,22.61
2022-07-29T04:34:20.691Z,22.58
2022-07-29T04:36:47.494Z,22.56
2022-07-29T04:39:17.052Z,22.55
2022-07-29T04:41:45.838Z,22.54
2022-07-29T04:44:12.951Z,22.54
2022-07-29T04:46:40.629Z,22.55
2022-07-29T04:49:07.143Z,22.54
2022-07-29T04:51:33.655Z,22.55
2022-07-29T04:54:00.034Z,22.52
2022-07-29T04:56:26.516Z,22.53
2022-07-29T04:58:53.221Z,22.58
2022-07-29T05:01:19.804Z,22.63
2022-07-29T05:03:46.534Z,22.68
2022-07-29T05:06:13.108Z,22.68
2022-07-29T05:08:39.516Z,22.66
2022-07-29T05:11:12.160Z,22.62
2022-07-29T05:13:45.939Z,22.60
2022-07-29T05:16:14.102Z,22.58
2022-07-29T05:18:40.713Z,22.60
2022-07-29T05:21:07.316Z,22.65
2022-07-29T05:23:33.753Z,22.68
2022-07-29T05:26:00.140Z,22.69
2022-07-29T05:28:26.501Z,22.71
2022-07-29T05:30:52.965Z,22.71
2022-07-29T05:33:36.047Z,22.72
2022-07-29T05:36:06.544Z,22.75
2022-07-29T05:38:33.418Z,22.75
2022-07-29T05:41:00.584Z,22.80
2022-07-29T05:43:28.201Z,22.80
2022-07-29T05:45:54.776Z,22.84
2022-07-29T05:48:21.648Z,22.86
2022-07-29T05:50:48.061Z,22.83
2022-07-29T05:53:19.104Z,22.80
2022-07-29T05:55:46.684Z,22.79
2022-07-29T05:58:13.408Z,22.77
2022-07-29T06:00:39.815Z,22.77
2022-07-29T06:03:06.471Z,22.77
2022-07-29T06:05:33.057Z,22.75
2022-07-29T06:07:59.559Z,22.75
2022-07-29T06:10:26.322Z,22.72
2022-07-29T06:12:53.747Z,22.70
2022-07-29T06:15:20.479Z,22.71
2022-07-29T06:17:59.299Z,22.66
2022-07-29T06:20:31.601Z,22.62
2022-07-29T06:22:58.563Z,22.65
2022-07-29T06:25:25.074Z,22.62
2022-07-29T06:27:51.543Z,22.64
2022-07-29T06:30:18.019Z,22.65
2022-07-29T06:32:44.412Z,22.68
2022-07-29T06:37:59.525Z,22.70
2022-07-29T06:40:45.073Z,22.71
2022-07-29T06:43:12.035Z,22.70
2022-07-29T06:45:42.346Z,22.67
2022-07-29T06:48:09.247Z,22.64
2022-07-29T06:50:35.675Z,22.65
2022-07-29T06:53:02.145Z,22.65
2022-07-29T06:55:28.689Z,22.66
2022-07-29T06:57:55.087Z,22.63
2022-07-29T07:00:21.635Z,22.62
2022-07-29T07:02:48.119Z,22.63
2022-07-29T07:05:14.617Z,22.69
2022-07-29T07:07:41.022Z,22.70
2022-07-29T07:10:07.748Z,22.73
2022-07-29T07:12:34.159Z,22.76
2022-07-29T07:15:00.740Z,22.81
2022-07-29T07:17:27.167Z,22.83
2022-07-29T07:19:53.558Z,22.86
2022-07-29T07:22:19.953Z,22.88
2022-07-29T07:24:46.347Z,22.91
2022-07-29T07:27:12.778Z,22.96
2022-07-29T07:29:42.092Z,23.00
2022-07-29T07:32:10.842Z,23.01
2022-07-29T07:34:38.832Z,23.04
2022-07-29T07:37:05.670Z,23.06
2022-07-29T07:39:32.131Z,23.07
2022-07-29T07:41:58.554Z,23.06
2022-07-29T07:44:25.042Z,23.07
2022-07-29T07:46:51.451Z,23.07
2022-07-29T07:49:17.963Z,23.05
2022-07-29T07:51:44.542Z,23.07
2022-07-29T07:54:17.615Z,23.07
2022-07-29T07:56:44.517Z,23.12
2022-07-29T07:59:10.969Z,23.14
2022-07-29T08:01:48.436Z,23.17
2022-07-29T08:04:27.722Z,23.17
2022-07-29T08:06:55.290Z,23.18
2022-07-29T08:09:29.213Z,23.19
2022-07-29T08:11:57.008Z,23.20
2022-07-29T08:14:23.591Z,23.20
2022-07-29T08:16:50.273Z,23.22
2022-07-29T08:19:16.934Z,23.22
2022-07-29T08:21:43.395Z,23.21
2022-07-29T08:24:28.167Z,23.24
2022-07-29T08:26:54.586Z,23.24
2022-07-29T08:29:21.007Z,23.24
2022-07-29T08:31:47.567Z,23.23
2022-07-29T08:34:14.192Z,23.26
2022-07-29T08:36:40.676Z,23.27
2022-07-29T08:39:07.185Z,23.27
2022-07-29T08:41:33.824Z,23.28
2022-07-29T08:44:00.278Z,23.29
2022-07-29T08:46:26.843Z,23.30
2022-07-29T08:48:53.294Z,23.33
2022-07-29T08:51:20.564Z,23.34
2022-07-29T08:53:49.349Z,23.36
2022-07-29T08:56:18.229Z,23.36
2022-07-29T08:58:45.717Z,23.37
2022-07-29T09:01:21.901Z,23.39
2022-07-29T09:03:49.826Z,23.39
2022-07-29T09:06:18.498Z,23.40
2022-07-29T09:08:45.890Z,23.41
2022-07-29T09:11:12.969Z,23.43
2022-07-29T09:13:39.467Z,23.43
2022-07-29T09:16:09.419Z,23.44
2022-07-29T09:18:37.705Z,23.46
2022-07-29T09:21:23.629Z,23.48
2022-07-29T09:24:08.669Z,23.48
2022-07-29T09:26:36.658Z,23.50
2022-07-29T09:29:14.242Z,23.50
2022-07-29T09:31:42.933Z,23.52
2022-07-29T09:34:10.505Z,23.56
2022-07-29T09:36:47.549Z,23.59
2022-07-29T09:39:15.324Z,23.65
2022-07-29T09:41:51.068Z,23.67
2022-07-29T09:44:17.704Z,23.64
2022-07-29T09:46:58.289Z,23.64
2022-07-29T09:49:25.762Z,23.70
2022-07-29T09:52:06.081Z,23.67
2022-07-29T09:54:37.836Z,23.65
2022-07-29T09:57:07.499Z,23.64
2022-07-29T09:59:34.438Z,23.63
2022-07-29T10:02:00.953Z,23.65
2022-07-29T10:04:47.662Z,23.71
2022-07-29T10:07:14.215Z,23.74
2022-07-29T10:09:50.444Z,23.78
2022-07-29T10:12:17.080Z,23.82
2022-07-29T10:14:43.903Z,23.83
2022-07-29T10:17:11.213Z,23.87
2022-07-29T10:19:38.258Z,23.87
2022-07-29T10:22:07.682Z,23.89
2022-07-29T10:24:34.552Z,23.93
2022-07-29T10:27:02.253Z,23.95
2022-07-29T10:29:32.531Z,23.98
2022-07-29T10:32:05.606Z,24.00
2022-07-29T10:34:44.843Z,24.00
2022-07-29T10:37:20.946Z,23.99
2022-07-29T10:40:26.338Z,24.00
2022-07-29T10:42:56.136Z,24.02
2022-07-29T10:45:23.489Z,24.01
2022-07-29T10:48:03.083Z,23.98
2022-07-29T10:50:49.524Z,24.00
2022-07-29T10:53:16.068Z,24.03
2022-07-29T10:55:45.391Z,24.01
2022-07-29T10:58:21.353Z,23.94
2022-07-29T11:00:49.390Z,23.95
2022-07-29T11:03:34.837Z,23.97
2022-07-29T11:06:02.382Z,23.97
2022-07-29T11:08:35.072Z,23.98
2022-07-29T11:11:19.874Z,23.98
2022-07-29T11:13:51.449Z,24.03
2022-07-29T11:16:23.059Z,24.02
2022-07-29T11:19:10.773Z,24.06
2022-07-29T11:21:54.202Z,24.08
2022-07-29T11:24:29.988Z,24.08
2022-07-29T11:27:13.451Z,24.11
2022-07-29T11:32:36.906Z,24.07
2022-07-29T11:38:19.821Z,24.12
2022-07-29T11:41:07.716Z,24.14
2022-07-29T11:43:48.037Z,24.13
2022-07-29T11:46:17.728Z,24.18
2022-07-29T11:51:38.415Z,24.20
2022-07-29T11:54:17.981Z,24.23
2022-07-29T11:56:54.096Z,24.28
2022-07-29T11:59:21.148Z,24.31
2022-07-29T12:02:18.349Z,24.32
2022-07-29T12:04:51.483Z,24.32
2022-07-29T12:07:01.566Z,24.10
2022-07-29T12:07:03.466Z,24.16
2022-07-29T12:07:03.661Z,24.07
2022-07-29T12:07:19.090Z,24.28
2022-07-29T12:09:53.495Z,24.30
2022-07-29T12:12:24.538Z,24.29
2022-07-29T12:14:51.367Z,24.31
2022-07-29T12:17:33.674Z,24.31
2022-07-29T12:20:01.448Z,24.39
2022-07-29T12:22:38.108Z,24.35
2022-07-29T12:25:31.883Z,24.31
2022-07-29T12:27:59.591Z,24.26
2022-07-29T12:30:35.958Z,24.29
2022-07-29T12:33:02.793Z,24.27
2022-07-29T12:35:29.235Z,24.28
2022-07-29T12:37:55.885Z,24.30
2022-07-29T12:40:23.898Z,24.35
2022-07-29T12:43:06.769Z,24.39
2022-07-29T12:45:33.446Z,24.41
2022-07-29T12:48:00.134Z,24.48
2022-07-29T12:50:27.014Z,24.49
2022-07-29T12:52:53.543Z,24.50
2022-07-29T12:55:38.816Z,24.53
2022-07-29T12:58:05.244Z,24.50
2022-07-29T13:00:32.122Z,24.50
2022-07-29T13:03:00.048Z,24.51
2022-07-29T13:05:49.634Z,24.49
2022-07-29T13:08:21.993Z,24.52
2022-07-29T13:10:48.782Z,24.56
2022-07-29T13:13:15.917Z,24.54
2022-07-29T13:15:43.617Z,24.53
2022-07-29T13:18:29.166Z,24.53
2022-07-29T13:20:55.930Z,24.55
2022-07-29T13:23:22.380Z,24.53
2022-07-29T13:25:48.953Z,24.53
2022-07-29T13:28:15.552Z,24.59
2022-07-29T13:30:44.546Z,24.57
2022-07-29T13:33:11.299Z,24.56
2022-07-29T13:35:40.042Z,24.68
2022-07-29T13:38:06.837Z,24.67
2022-07-29T13:40:34.812Z,24.67
2022-07-29T13:43:01.204Z,24.65
2022-07-29T13:45:29.194Z,24.67
2022-07-29T13:47:55.874Z,24.67
2022-07-29T13:50:22.321Z,24.71
2022-07-29T13:52:49.505Z,24.70
2022-07-29T13:55:16.027Z,24.65
2022-07-29T13:57:42.423Z,24.65
2022-07-29T14:00:09.434Z,24.69
2022-07-29T14:02:35.839Z,24.69
2022-07-29T14:05:07.675Z,24.68
2022-07-29T14:07:34.893Z,24.65
2022-07-29T14:10:01.303Z,24.59
2022-07-29T14:12:27.764Z,24.56
2022-07-29T14:14:54.206Z,24.58
2022-07-29T14:17:20.692Z,24.62
2022-07-29T14:19:47.118Z,24.67
2022-07-29T14:22:13.620Z,24.66
2022-07-29T14:24:40.592Z,24.67
2022-07-29T14:27:08.119Z,24.70
2022-07-29T14:29:38.014Z,24.68
2022-07-29T14:32:08.456Z,24.63
2022-07-29T14:34:35.538Z,24.60
2022-07-29T14:37:02.081Z,24.60
2022-07-29T14:39:31.724Z,24.58
2022-07-29T14:41:59.132Z,24.60
2022-07-29T14:44:31.802Z,24.56
2022-07-29T14:47:07.858Z,24.62
2022-07-29T14:49:34.916Z,24.63
2022-07-29T14:52:01.525Z,24.61
2022-07-29T14:54:28.142Z,24.63
2022-07-29T14:56:57.830Z,24.64
2022-07-29T14:59:24.573Z,24.68
2022-07-29T15:01:51.079Z,24.71
2022-07-29T15:04:17.553Z,24.64
2022-07-29T15:06:44.059Z,24.61
2022-07-29T15:09:10.477Z,24.59
2022-07-29T15:11:38.204Z,24.58
2022-07-29T15:14:04.942Z,24.54
2022-07-29T15:16:31.393Z,24.56
2022-07-29T15:18:58.717Z,24.54
2022-07-29T15:21:27.870Z,24.52
2022-07-29T15:23:54.473Z,24.50
2022-07-29T15:26:21.088Z,24.51
2022-07-29T15:28:47.623Z,24.52
2022-07-29T15:31:14.080Z,24.56
2022-07-29T15:33:40.658Z,24.58
2022-07-29T15:36:07.212Z,24.57
2022-07-29T15:38:33.940Z,24.54
2022-07-29T15:41:00.698Z,24.53
2022-07-29T15:43:27.193Z,24.55
2022-07-29T15:46:12.315Z,24.56
2022-07-29T15:48:40.200Z,24.56
2022-07-29T15:51:06.656Z,24.57
2022-07-29T15:53:33.846Z,24.59
2022-07-29T15:56:02.143Z,24.57
2022-07-29T15:58:28.568Z,24.52
2022-07-29T16:00:55.078Z,24.51
2022-07-29T16:03:22.817Z,24.50
2022-07-29T16:05:49.201Z,24.50
2022-07-29T16:08:15.598Z,24.51
2022-07-29T16:10:42.085Z,24.52
2022-07-29T16:13:08.538Z,24.52
2022-07-29T16:15:35.321Z,24.56
2022-07-29T16:18:01.827Z,24.59
2022-07-29T16:20:29.587Z,24.62
2022-07-29T16:22:56.151Z,24.64
2022-07-29T16:25:38.338Z,24.64
2022-07-29T16:28:09.051Z,24.64
2022-07-29T16:30:35.922Z,24.60
2022-07-29T16:33:07.831Z,24.57
2022-07-29T16:35:39.626Z,24.56
2022-07-29T16:38:06.625Z,24.55
2022-07-29T16:40:33.160Z,24.54
2022-07-29T16:42:59.624Z,24.54
2022-07-29T16:45:26.248Z,24.52
2022-07-29T16:48:00.337Z,24.52
2022-07-29T16:50:28.822Z,24.52
2022-07-29T16:52:55.605Z,24.56
2022-07-29T16:55:22.266Z,24.56
2022-07-29T16:57:48.738Z,24.53
2022-07-29T17:00:16.237Z,24.54
2022-07-29T17:02:42.783Z,24.52
2022-07-29T17:05:10.657Z,24.51
2022-07-29T17:07:37.264Z,24.52
2022-07-29T17:10:08.109Z,24.51
2022-07-29T17:12:38.151Z,24.50
2022-07-29T17:15:05.318Z,24.52
2022-07-29T17:17:39.231Z,24.51
2022-07-29T17:20:18.844Z,24.51
2022-07-29T17:22:45.269Z,24.50
2022-07-29T17:25:13.651Z,24.52
2022-07-29T17:27:47.589Z,24.53
2022-07-29T17:30:14.093Z,24.51
2022-07-29T17:32:40.529Z,24.52
2022-07-29T17:35:25.699Z,24.51
2022-07-29T17:37:52.273Z,24.53
2022-07-29T17:40:18.677Z,24.51
2022-07-29T17:42:45.098Z,24.51
2022-07-29T17:45:11.557Z,24.52
2022-07-29T17:47:38.420Z,24.52
2022-07-29T17:50:05.602Z,24.52
2022-07-29T17:52:31.989Z,24.52
2022-07-29T17:54:58.524Z,24.50
2022-07-29T17:57:25.165Z,24.48
2022-07-29T17:59:51.714Z,24.50
2022-07-29T18:02:18.397Z,24.51
2022-07-29T18:04:45.021Z,24.54
2022-07-29T18:07:17.095Z,24.54
2022-07-29T18:09:43.521Z,24.53
2022-07-29T18:12:10.138Z,24.52
2022-07-29T18:14:36.545Z,24.51
2022-07-29T18:17:03.166Z,24.50
2022-07-29T18:19:29.785Z,24.50
2022-07-29T18:22:00.426Z,24.50
2022-07-29T18:24:31.479Z,24.48
2022-07-29T18:26:58.130Z,24.49
2022-07-29T18:29:24.952Z,24.51
2022-07-29T18:31:51.410Z,24.52
2022-07-29T18:34:18.011Z,24.53
2022-07-29T18:36:45.784Z,24.53
2022-07-29T18:39:15.411Z,24.53
2022-07-29T18:41:50.751Z,24.52
2022-07-29T18:44:21.866Z,24.52
2022-07-29T18:46:49.559Z,24.52
2022-07-29T18:49:16.188Z,24.52
2022-07-29T18:51:42.649Z,24.51
2022-07-29T18:54:10.068Z,24.51
2022-07-29T18:56:36.818Z,24.51
2022-07-29T18:59:03.354Z,24.53
2022-07-29T19:01:31.725Z,24.52
2022-07-29T19:03:59.020Z,24.51
2022-07-29T19:06:26.028Z,24.51
2022-07-29T19:08:52.947Z,24.51
2022-07-29T19:11:19.387Z,24.49
2022-07-29T19:13:45.876Z,24.50
2022-07-29T19:16:14.053Z,24.49
2022-07-29T19:18:40.810Z,24.49
2022-07-29T19:21:07.282Z,24.48
2022-07-29T19:24:03.820Z,24.47
2022-07-29T19:26:20.939Z,24.47
2022-07-29T19:28:48.838Z,24.46
2022-07-29T19:31:15.844Z,24.44
2022-07-29T19:33:42.682Z,24.44
2022-07-29T19:36:09.336Z,24.45
2022-07-29T19:38:35.806Z,24.46
2022-07-29T19:41:02.201Z,24.44
2022-07-29T19:43:50.915Z,24.44
2022-07-29T19:46:15.128Z,24.45
2022-07-29T19:48:41.623Z,24.44
2022-07-29T19:51:08.144Z,24.42
2022-07-29T19:53:34.738Z,24.43
2022-07-29T19:56:03.531Z,24.43
2022-07-29T19:58:30.378Z,24.43
2022-07-29T20:00:57.111Z,24.44
2022-07-29T20:03:23.681Z,24.43
2022-07-29T20:05:51.393Z,24.43
2022-07-29T20:08:18.025Z,24.43
2022-07-29T20:10:44.460Z,24.42
2022-07-29T20:13:11.161Z,24.42
2022-07-29T20:15:38.740Z,24.42
2022-07-29T20:18:05.298Z,24.41
2022-07-29T20:20:31.756Z,24.42
2022-07-29T20:22:59.261Z,24.42
2022-07-29T20:25:25.746Z,24.40
2022-07-29T20:27:55.089Z,24.39
2022-07-29T20:30:22.219Z,24.38
2022-07-29T20:32:48.967Z,24.38
2022-07-29T20:35:15.610Z,24.38
2022-07-29T20:37:56.040Z,24.38
2022-07-29T20:40:23.445Z,24.36
2022-07-29T20:42:49.940Z,24.38
2022-07-29T20:45:16.434Z,24.38
2022-07-29T20:47:42.909Z,24.38
2022-07-29T20:50:10.260Z,24.37
2022-07-29T20:52:36.711Z,24.35
2022-07-29T20:55:03.305Z,24.36
2022-07-29T20:57:38.998Z,24.33
2022-07-29T21:00:06.710Z,24.34
2022-07-29T21:02:33.441Z,24.35
2022-07-29T21:04:59.923Z,24.32
2022-07-29T21:07:26.398Z,24.29
2022-07-29T21:09:52.941Z,24.29
2022-07-29T21:12:19.435Z,24.28
2022-07-29T21:14:48.605Z,24.27
2022-07-29T21:17:15.882Z,24.27
2022-07-29T21:19:42.795Z,24.26
2022-07-29T21:22:09.464Z,24.25
2022-07-29T21:24:35.961Z,24.21
2022-07-29T21:27:21.931Z,24.18
2022-07-29T21:29:48.704Z,24.18
2022-07-29T21:32:30.114Z,24.17
2022-07-29T21:34:57.111Z,24.16
2022-07-29T21:37:23.605Z,24.13
2022-07-29T21:39:50.047Z,24.10
2022-07-29T21:42:16.533Z,24.09
2022-07-29T21:44:43.078Z,24.09
2022-07-29T21:47:09.831Z,24.10
2022-07-29T21:49:36.336Z,24.08
2022-07-29T21:52:03.982Z,24.06
2022-07-29T21:54:30.390Z,24.06
2022-07-29T21:56:57.197Z,24.06
2022-07-29T21:59:24.520Z,24.05
2022-07-29T22:01:51.036Z,24.03
2022-07-29T22:04:17.631Z,24.03
2022-07-29T22:06:44.385Z,24.03
2022-07-29T22:09:10.792Z,24.02
2022-07-29T22:11:37.312Z,24.02
2022-07-29T22:14:04.576Z,24.02
2022-07-29T22:16:31.286Z,24.03
2022-07-29T22:18:57.891Z,23.98
2022-07-29T22:21:24.431Z,23.98
2022-07-29T22:23:50.869Z,23.97
2022-07-29T22:26:17.258Z,23.96
2022-07-29T22:28:43.772Z,23.96
2022-07-29T22:31:10.212Z,23.93
2022-07-29T22:33:36.697Z,23.93
2022-07-29T22:36:03.168Z,23.96
2022-07-29T22:38:29.869Z,23.97
2022-07-29T22:41:01.555Z,23.99
2022-07-29T22:43:29.800Z,24.01
2022-07-29T22:45:56.267Z,24.03
2022-07-29T22:48:22.786Z,24.04
2022-07-29T22:50:49.206Z,24.06
2022-07-29T22:53:15.685Z,24.05
2022-07-29T22:55:42.079Z,24.05
2022-07-29T22:58:08.632Z,24.08
2022-07-29T23:00:35.021Z,24.09
2022-07-29T23:03:01.401Z,24.09
2022-07-29T23:05:27.837Z,24.09
2022-07-29T23:07:54.231Z,24.09
2022-07-29T23:10:22.538Z,24.08
2022-07-29T23:12:49.205Z,24.08
2022-07-29T23:15:15.769Z,24.08
2022-07-29T23:17:44.598Z,24.08
2022-07-29T23:20:11.330Z,24.08
2022-07-29T23:22:41.163Z,24.08
2022-07-29T23:25:07.881Z,24.06
2022-07-29T23:27:34.307Z,24.06
2022-07-29T23:30:00.757Z,24.04
2022-07-29T23:32:27.160Z,24.06
2022-07-29T23:34:53.646Z,24.06
2022-07-29T23:37:20.050Z,24.09
2022-07-29T23:39:46.563Z,24.06
2022-07-29T23:42:12.948Z,24.09
2022-07-29T23:44:39.376Z,24.08
2022-07-29T23:47:05.822Z,24.08
2022-07-29T23:49:32.227Z,24.05
2022-07-29T23:51:58.646Z,24.06
2022-07-29T23:54:25.091Z,24.08
2022-07-29T23:56:51.522Z,24.06
2022-07-29T23:59:17.915Z,24.04
